Terminal Aerodrome Forecast
Issued by NWS

Home | Current Version | Previous Version | Text Only | Print | Product List | Glossary On
Versions: 1 2 3 4 5 6 7 8 9 10 11 12 13 14 15 16 17 18 19 20 21 22 23 24 25 26 27 28 29 30 31 32 33 34 35 36 37 38 39
000
FTUS45 KBOU 051120
TAFAPA
TAF
KAPA 051120Z 0512/0612 23006KT P6SM FEW070 BKN100
     FM051600 VRB05KT P6SM SCT100 BKN140
     FM051800 07006KT P6SM SCT120 BKN200
     FM052200 15011KT P6SM SCT080 BKN120
     FM060200 20009KT P6SM SCT100 BKN200=

USA.gov is the U.S. government's official web portal to all federal, state and local government web resources and services.